createdAt,value
2023-04-19T00:01:37.100Z,50.80
2023-04-19T00:03:45.192Z,57.58
2023-04-19T00:05:55.547Z,55.88
2023-04-19T00:08:03.140Z,56.28
2023-04-19T00:10:11.190Z,50.20
2023-04-19T00:12:18.423Z,49.10
2023-04-19T00:14:27.330Z,51.10
2023-04-19T00:16:34.819Z,51.40
2023-04-19T00:18:41.870Z,51.30
2023-04-19T00:20:49.761Z,48.20
2023-04-19T00:22:59.409Z,46.65
2023-04-19T00:25:07.146Z,47.50
2023-04-19T00:27:14.339Z,44.05
2023-04-19T00:29:22.075Z,46.05
2023-04-19T00:31:30.981Z,49.58
2023-04-19T00:33:38.337Z,51.80
2023-04-19T00:35:45.767Z,50.55
2023-04-19T00:37:53.819Z,45.92
2023-04-19T00:40:01.173Z,46.95
2023-04-19T00:42:08.553Z,46.67
2023-04-19T00:44:16.171Z,44.15
2023-04-19T00:46:24.133Z,46.95
2023-04-19T00:48:33.791Z,46.83
2023-04-19T00:50:41.057Z,42.55
2023-04-19T00:52:48.136Z,45.10
2023-04-19T00:54:55.577Z,43.80
2023-04-19T00:57:02.663Z,42.80
2023-04-19T00:59:10.344Z,42.38
2023-04-19T01:01:17.975Z,40.38
2023-04-19T01:03:28.413Z,42.63
2023-04-19T01:05:37.166Z,43.42
2023-04-19T01:07:44.498Z,40.80
2023-04-19T01:09:54.393Z,40.03
2023-04-19T01:12:03.164Z,41.75
2023-04-19T01:14:10.445Z,41.55
2023-04-19T01:16:18.648Z,39.45
2023-04-19T01:18:27.332Z,37.78
2023-04-19T01:20:36.293Z,36.10
2023-04-19T01:22:45.419Z,41.05
2023-04-19T01:24:52.862Z,42.22
2023-04-19T01:27:00.196Z,34.20
2023-04-19T01:29:08.055Z,35.95
2023-04-19T01:31:15.250Z,35.35
2023-04-19T01:33:22.409Z,35.15
2023-04-19T01:35:29.490Z,34.47
2023-04-19T01:37:39.593Z,37.97
2023-04-19T01:39:48.304Z,32.70
2023-04-19T01:41:56.043Z,33.15
2023-04-19T01:44:03.431Z,35.35
2023-04-19T01:46:10.566Z,34.70
2023-04-19T01:48:18.142Z,33.35
2023-04-19T01:50:25.077Z,32.95
2023-04-19T01:52:32.196Z,29.90
2023-04-19T01:54:39.340Z,34.92
2023-04-19T01:56:49.032Z,34.70
2023-04-19T01:58:56.124Z,34.50
2023-04-19T02:01:03.449Z,34.30
2023-04-19T02:03:12.473Z,33.00
2023-04-19T02:05:19.956Z,31.52
2023-04-19T02:07:27.086Z,36.13
2023-04-19T02:09:34.730Z,31.63
2023-04-19T02:11:42.015Z,30.63
2023-04-19T02:13:50.990Z,34.95
2023-04-19T02:15:57.970Z,32.75
2023-04-19T02:18:07.573Z,30.25
2023-04-19T02:20:14.948Z,30.52
2023-04-19T02:22:22.580Z,34.67
2023-04-19T02:24:30.330Z,33.15
2023-04-19T02:26:38.637Z,30.10
2023-04-19T02:28:45.968Z,31.17
2023-04-19T02:30:55.307Z,31.88
2023-04-19T02:33:02.454Z,32.63
2023-04-19T02:35:10.390Z,31.48
2023-04-19T02:37:18.437Z,32.40
2023-04-19T02:39:25.923Z,32.58
2023-04-19T02:41:33.316Z,31.05
2023-04-19T02:43:42.128Z,33.03
2023-04-19T02:45:54.902Z,28.58
2023-04-19T02:48:02.562Z,33.90
2023-04-19T02:50:10.635Z,29.30
2023-04-19T02:52:25.805Z,29.58
2023-04-19T02:54:34.269Z,30.08
2023-04-19T02:56:41.603Z,27.10
2023-04-19T02:58:49.761Z,32.28
2023-04-19T03:00:59.313Z,27.30
2023-04-19T03:03:06.991Z,32.35
2023-04-19T03:05:15.088Z,30.02
2023-04-19T03:07:22.113Z,31.33
2023-04-19T03:09:29.909Z,30.45
2023-04-19T03:11:42.370Z,31.85
2023-04-19T03:13:49.552Z,33.58
2023-04-19T03:15:58.838Z,32.80
2023-04-19T03:18:07.751Z,37.65
2023-04-19T03:20:18.160Z,31.17
2023-04-19T03:22:25.711Z,31.98
2023-04-19T03:24:34.440Z,32.75
2023-04-19T03:26:56.031Z,32.80
2023-04-19T03:29:06.794Z,37.08
2023-04-19T03:31:15.742Z,30.75
2023-04-19T03:33:23.716Z,31.15
2023-04-19T03:35:33.299Z,34.95
2023-04-19T03:37:48.376Z,30.50
2023-04-19T03:39:55.702Z,32.58
2023-04-19T03:42:09.083Z,34.00
2023-04-19T03:44:30.750Z,31.75
2023-04-19T03:46:39.456Z,32.22
2023-04-19T03:48:47.017Z,31.70
2023-04-19T03:50:54.165Z,34.00
2023-04-19T03:53:02.198Z,33.10
2023-04-19T03:55:09.841Z,30.27
2023-04-19T03:57:21.062Z,30.65
2023-04-19T03:59:29.125Z,30.80
2023-04-19T04:01:43.151Z,34.58
2023-04-19T04:03:50.564Z,32.20
2023-04-19T04:05:58.798Z,34.33
2023-04-19T04:08:06.494Z,32.03
2023-04-19T04:10:14.036Z,31.70
2023-04-19T04:12:23.160Z,33.20
2023-04-19T04:14:33.003Z,33.45
2023-04-19T04:16:42.524Z,34.15
2023-04-19T04:19:21.328Z,29.38
2023-04-19T04:21:29.889Z,33.45
2023-04-19T04:23:40.762Z,35.47
2023-04-19T04:26:00.174Z,33.83
2023-04-19T04:28:16.271Z,36.30
2023-04-19T04:30:26.568Z,31.92
2023-04-19T04:32:38.579Z,34.35
2023-04-19T04:34:45.914Z,32.42
2023-04-19T04:37:01.854Z,31.30
2023-04-19T04:39:11.396Z,33.88
2023-04-19T04:41:18.521Z,32.42
2023-04-19T04:43:26.729Z,31.70
2023-04-19T04:45:33.822Z,32.90
2023-04-19T04:47:44.513Z,35.20
2023-04-19T04:49:51.710Z,34.33
2023-04-19T04:51:59.813Z,33.60
2023-04-19T04:54:09.922Z,32.85
2023-04-19T04:56:17.212Z,34.78
2023-04-19T04:58:24.806Z,33.05
2023-04-19T05:00:40.416Z,32.70
2023-04-19T05:02:51.176Z,34.53
2023-04-19T05:04:58.620Z,35.08
2023-04-19T05:07:06.567Z,34.17
2023-04-19T05:09:13.899Z,34.10
2023-04-19T05:11:21.297Z,33.50
2023-04-19T05:13:28.676Z,32.75
2023-04-19T05:15:36.538Z,34.10
2023-04-19T05:17:44.453Z,32.55
2023-04-19T05:19:54.108Z,34.05
2023-04-19T05:22:01.448Z,29.95
2023-04-19T05:24:11.046Z,30.35
2023-04-19T05:26:18.936Z,30.13
2023-04-19T05:28:27.602Z,32.80
2023-04-19T05:30:49.672Z,32.17
2023-04-19T05:32:56.731Z,35.13
2023-04-19T05:35:05.986Z,34.83
2023-04-19T05:37:13.056Z,32.53
2023-04-19T05:39:21.733Z,31.65
2023-04-19T05:41:28.767Z,35.92
2023-04-19T05:43:36.250Z,33.50
2023-04-19T05:45:43.844Z,32.45
2023-04-19T05:47:51.213Z,31.88
2023-04-19T05:50:39.359Z,34.78
2023-04-19T05:53:09.598Z,34.72
2023-04-19T05:55:16.877Z,33.97
2023-04-19T05:57:25.542Z,34.65
2023-04-19T05:59:32.736Z,34.58
2023-04-19T06:01:40.266Z,31.83
2023-04-19T06:03:47.530Z,31.38
2023-04-19T06:05:56.741Z,32.65
2023-04-19T06:08:04.588Z,32.70
2023-04-19T06:10:12.929Z,31.73
2023-04-19T06:12:19.962Z,34.55
2023-04-19T06:14:27.347Z,31.17
2023-04-19T06:16:35.265Z,34.15
2023-04-19T06:18:44.215Z,30.52
2023-04-19T06:20:51.398Z,31.88
2023-04-19T06:23:00.472Z,34.20
2023-04-19T06:25:11.002Z,31.67
2023-04-19T06:29:27.459Z,31.73
2023-04-19T06:31:36.401Z,33.58
2023-04-19T06:33:44.098Z,38.65
2023-04-19T06:35:52.152Z,36.95
2023-04-19T06:38:02.291Z,32.30
2023-04-19T06:40:11.572Z,34.13
2023-04-19T06:42:20.963Z,31.63
2023-04-19T06:44:30.132Z,32.53
2023-04-19T06:46:38.093Z,31.48
2023-04-19T06:48:46.146Z,33.60
2023-04-19T06:50:53.779Z,34.10
2023-04-19T06:53:04.866Z,31.65
2023-04-19T06:55:13.921Z,34.78
2023-04-19T06:57:22.372Z,30.10
2023-04-19T06:59:30.192Z,34.65
2023-04-19T07:01:38.236Z,33.92
2023-04-19T07:03:46.429Z,31.52
2023-04-19T07:05:57.451Z,32.97
2023-04-19T07:08:06.782Z,32.13
2023-04-19T07:10:15.882Z,34.63
2023-04-19T07:12:23.656Z,36.35
2023-04-19T07:14:31.567Z,32.50
2023-04-19T07:16:39.320Z,30.33
2023-04-19T07:18:47.457Z,35.90
2023-04-19T07:20:55.360Z,35.30
2023-04-19T07:23:05.504Z,35.42
2023-04-19T07:25:14.124Z,31.38
2023-04-19T07:27:22.069Z,33.15
2023-04-19T07:29:29.831Z,34.17
2023-04-19T07:31:38.242Z,33.35
2023-04-19T07:33:46.349Z,32.75
2023-04-19T07:35:54.578Z,33.95
2023-04-19T07:38:02.375Z,33.10
2023-04-19T07:40:12.947Z,32.88
2023-04-19T07:42:20.962Z,32.72
2023-04-19T07:44:28.703Z,34.10
2023-04-19T07:46:36.848Z,32.47
2023-04-19T07:48:44.633Z,33.53
2023-04-19T07:50:52.553Z,32.08
2023-04-19T07:53:00.325Z,35.50
2023-04-19T07:55:10.810Z,32.80
2023-04-19T07:57:18.526Z,35.70
2023-04-19T07:59:26.400Z,34.95
2023-04-19T08:01:34.875Z,33.60
2023-04-19T08:03:43.378Z,33.92
2023-04-19T08:05:51.661Z,39.60
2023-04-19T08:07:59.873Z,32.83
2023-04-19T08:10:08.298Z,36.90
2023-04-19T08:12:32.776Z,36.33
2023-04-19T08:14:56.373Z,34.05
2023-04-19T08:17:21.942Z,35.58
2023-04-19T08:19:31.356Z,37.30
2023-04-19T08:21:41.546Z,33.70
2023-04-19T08:23:50.321Z,38.40
2023-04-19T08:25:59.954Z,36.80
2023-04-19T08:28:09.938Z,37.90
2023-04-19T08:30:17.888Z,44.13
2023-04-19T08:32:26.127Z,36.20
2023-04-19T08:34:33.962Z,37.22
2023-04-19T08:36:48.731Z,37.08
2023-04-19T08:39:06.704Z,35.83
2023-04-19T08:41:30.212Z,36.15
2023-04-19T08:43:41.712Z,37.15
2023-04-19T08:45:51.923Z,37.90
2023-04-19T08:48:02.168Z,37.70
2023-04-19T08:50:24.176Z,41.83
2023-04-19T08:52:48.180Z,37.95
2023-04-19T08:55:05.310Z,37.35
2023-04-19T08:57:13.573Z,36.78
2023-04-19T08:59:23.769Z,38.75
2023-04-19T09:01:36.237Z,37.83
2023-04-19T09:04:02.592Z,37.53
2023-04-19T09:06:15.278Z,39.97
2023-04-19T09:08:27.955Z,37.95
2023-04-19T09:10:36.107Z,37.38
2023-04-19T09:12:44.577Z,37.28
2023-04-19T09:15:01.944Z,39.13
2023-04-19T09:17:19.747Z,41.28
2023-04-19T09:19:28.124Z,36.97
2023-04-19T09:21:37.399Z,36.58
2023-04-19T09:23:51.416Z,45.13
2023-04-19T09:28:16.026Z,42.40
2023-04-19T09:32:51.644Z,40.92
2023-04-19T09:35:00.535Z,37.72
2023-04-19T09:37:35.021Z,40.55
2023-04-19T09:39:45.497Z,38.60
2023-04-19T09:41:57.961Z,35.95
2023-04-19T09:46:41.624Z,35.72
2023-04-19T09:48:49.403Z,38.78
2023-04-19T09:51:02.737Z,36.60
2023-04-19T09:53:14.104Z,45.92
2023-04-19T09:55:27.142Z,37.42
2023-04-19T09:57:37.569Z,40.30
2023-04-19T09:59:45.695Z,38.10
2023-04-19T10:01:58.141Z,42.67
2023-04-19T10:04:23.718Z,38.80
2023-04-19T10:06:58.483Z,38.13
2023-04-19T10:09:07.258Z,38.42
2023-04-19T10:11:16.271Z,39.53
2023-04-19T10:13:26.815Z,39.72
2023-04-19T10:15:47.275Z,38.17
2023-04-19T10:18:00.356Z,39.42
2023-04-19T10:20:13.368Z,38.08
2023-04-19T10:22:21.256Z,35.70
2023-04-19T10:24:29.940Z,39.28
2023-04-19T10:27:15.349Z,41.03
2023-04-19T10:42:29.303Z,38.70
2023-04-19T10:44:37.350Z,36.88
2023-04-19T10:46:45.042Z,36.22
2023-04-19T10:48:57.607Z,38.90
2023-04-19T10:51:06.167Z,36.58
2023-04-19T10:53:46.024Z,37.60
2023-04-19T10:55:55.451Z,43.85
2023-04-19T10:58:11.604Z,36.80
2023-04-19T11:00:28.017Z,37.72
2023-04-19T11:02:35.894Z,38.25
2023-04-19T11:05:06.708Z,39.72
2023-04-19T11:07:14.608Z,44.40
2023-04-19T11:09:27.288Z,40.47
2023-04-19T11:11:38.579Z,41.88
2023-04-19T11:13:50.429Z,44.90
2023-04-19T11:16:01.911Z,41.55
2023-04-19T11:18:13.039Z,44.88
2023-04-19T11:20:21.000Z,44.00
2023-04-19T11:22:35.807Z,47.78
2023-04-19T11:24:50.099Z,44.72
2023-04-19T11:27:00.929Z,44.88
2023-04-19T11:29:10.619Z,42.67
2023-04-19T11:31:18.554Z,44.75
2023-04-19T11:33:27.027Z,52.20
2023-04-19T11:35:34.877Z,46.90
2023-04-19T11:37:43.746Z,50.50
2023-04-19T11:39:51.935Z,49.97
2023-04-19T11:42:00.598Z,44.97
2023-04-19T11:44:18.539Z,50.38
2023-04-19T11:46:26.543Z,46.47
2023-04-19T11:48:34.566Z,49.80
2023-04-19T11:50:43.227Z,49.65
2023-04-19T11:52:53.973Z,52.70
2023-04-19T11:55:21.893Z,52.42
2023-04-19T11:57:34.396Z,53.00
2023-04-19T12:00:04.632Z,52.92
2023-04-19T12:02:21.621Z,49.28
2023-04-19T12:04:29.818Z,48.45
2023-04-19T12:06:37.862Z,55.10
2023-04-19T12:08:49.215Z,53.03
2023-04-19T12:11:01.140Z,51.17
2023-04-19T12:13:21.660Z,52.42
2023-04-19T12:15:45.868Z,47.50
2023-04-19T12:18:04.027Z,50.05
2023-04-19T12:20:12.910Z,47.03
2023-04-19T12:22:23.111Z,49.55
2023-04-19T12:24:31.064Z,49.25
2023-04-19T12:26:38.746Z,47.13
2023-04-19T12:28:46.789Z,48.10
2023-04-19T12:30:57.938Z,48.13
2023-04-19T12:33:06.062Z,49.47
2023-04-19T12:35:14.221Z,48.40
2023-04-19T12:37:22.281Z,50.95
2023-04-19T12:39:29.919Z,47.60
2023-04-19T12:41:37.572Z,53.25
2023-04-19T12:43:45.159Z,50.60
2023-04-19T12:45:55.347Z,54.78
2023-04-19T12:48:02.900Z,51.17
2023-04-19T12:50:11.982Z,53.90
2023-04-19T12:52:19.710Z,53.72
2023-04-19T12:54:27.689Z,52.22
2023-04-19T12:56:36.101Z,50.88
2023-04-19T12:58:44.324Z,51.33
2023-04-19T13:00:52.862Z,54.17
2023-04-19T13:03:02.937Z,53.40
2023-04-19T13:05:11.295Z,52.25
2023-04-19T13:07:19.581Z,51.88
2023-04-19T13:09:27.373Z,55.13
2023-04-19T13:11:35.311Z,52.85
2023-04-19T13:13:43.000Z,56.65
2023-04-19T13:15:51.103Z,48.83
2023-04-19T13:17:58.789Z,58.40
2023-04-19T13:20:09.412Z,52.13
2023-04-19T13:22:17.169Z,51.88
2023-04-19T13:24:25.372Z,50.13
2023-04-19T13:26:33.496Z,53.33
2023-04-19T13:28:41.676Z,54.78
2023-04-19T13:30:49.418Z,54.60
2023-04-19T13:32:57.720Z,50.97
2023-04-19T13:35:07.372Z,51.10
2023-04-19T13:37:15.787Z,47.92
2023-04-19T13:39:23.538Z,49.15
2023-04-19T13:41:31.688Z,48.65
2023-04-19T13:43:39.318Z,51.72
2023-04-19T13:45:47.270Z,46.17
2023-04-19T13:47:54.953Z,52.00
2023-04-19T13:50:03.098Z,47.15
2023-04-19T13:52:13.333Z,53.05
2023-04-19T13:54:21.588Z,48.38
2023-04-19T13:56:29.273Z,50.72
2023-04-19T13:58:37.238Z,50.08
2023-04-19T14:00:45.234Z,52.55
2023-04-19T14:02:53.543Z,47.22
2023-04-19T14:05:01.649Z,46.78
2023-04-19T14:07:12.197Z,48.08
2023-04-19T14:09:19.998Z,48.53
2023-04-19T14:11:29.167Z,47.60
2023-04-19T14:13:37.074Z,49.35
2023-04-19T14:15:45.160Z,48.13
2023-04-19T14:17:52.988Z,52.05
2023-04-19T14:20:01.034Z,48.33
2023-04-19T14:22:08.604Z,50.97
2023-04-19T14:24:18.984Z,45.83
2023-04-19T14:26:27.607Z,46.45
2023-04-19T14:28:35.964Z,51.15
2023-04-19T14:30:44.006Z,43.00
2023-04-19T14:32:52.177Z,53.65
2023-04-19T14:35:00.232Z,49.53
2023-04-19T14:37:08.208Z,49.30
2023-04-19T14:39:18.249Z,49.47
2023-04-19T14:41:26.518Z,48.50
2023-04-19T14:43:34.362Z,48.53
2023-04-19T14:45:42.647Z,46.08
2023-04-19T14:47:50.703Z,47.42
2023-04-19T14:49:58.954Z,47.45
2023-04-19T14:52:07.234Z,49.00
2023-04-19T14:54:17.072Z,49.15
2023-04-19T14:56:24.769Z,45.55
2023-04-19T14:58:32.982Z,53.55
2023-04-19T15:00:40.650Z,48.00
2023-04-19T15:02:49.060Z,50.00
2023-04-19T15:04:58.061Z,52.25
2023-04-19T15:07:06.968Z,44.95
2023-04-19T15:09:16.812Z,46.85
2023-04-19T15:11:25.220Z,50.33
2023-04-19T15:13:32.975Z,52.03
2023-04-19T15:15:40.945Z,48.63
2023-04-19T15:17:48.519Z,48.78
2023-04-19T15:19:56.559Z,48.72
2023-04-19T15:22:05.074Z,53.55
2023-04-19T15:24:13.212Z,53.83
2023-04-19T15:26:22.669Z,47.80
2023-04-19T15:28:30.876Z,47.67
2023-04-19T15:30:38.466Z,50.75
2023-04-19T15:32:46.230Z,48.78
2023-04-19T15:34:54.040Z,51.08
2023-04-19T15:37:02.826Z,50.92
2023-04-19T15:39:10.780Z,44.85
2023-04-19T15:41:18.981Z,47.88
2023-04-19T15:43:29.437Z,46.22
2023-04-19T15:45:37.858Z,51.10
2023-04-19T15:47:45.660Z,53.97
2023-04-19T15:49:54.177Z,54.75
2023-04-19T15:52:01.962Z,52.60
2023-04-19T15:54:09.665Z,47.83
2023-04-19T15:56:17.350Z,48.15
2023-04-19T15:58:25.229Z,53.17
2023-04-19T16:00:34.836Z,49.85
2023-04-19T16:02:42.722Z,52.55
2023-04-19T16:04:51.661Z,50.42
2023-04-19T16:07:00.249Z,49.95
2023-04-19T16:09:09.311Z,52.95
2023-04-19T16:11:17.002Z,50.65
2023-04-19T16:13:24.923Z,50.42
2023-04-19T16:15:34.738Z,48.25
2023-04-19T16:17:42.381Z,48.75
2023-04-19T16:19:50.318Z,51.45
2023-04-19T16:21:58.166Z,49.03
2023-04-19T16:24:05.888Z,48.47
2023-04-19T16:26:13.593Z,47.70
2023-04-19T16:28:21.704Z,47.28
2023-04-19T16:30:29.664Z,49.70
2023-04-19T16:32:39.494Z,47.15
2023-04-19T16:34:47.143Z,52.03
2023-04-19T16:36:55.853Z,55.42
2023-04-19T16:39:04.631Z,46.58
2023-04-19T16:41:12.885Z,51.90
2023-04-19T16:43:21.846Z,48.80
2023-04-19T16:45:30.233Z,51.22
2023-04-19T16:47:39.845Z,50.30
2023-04-19T16:49:50.485Z,44.90
2023-04-19T16:51:58.197Z,48.85
2023-04-19T16:54:06.209Z,50.55
2023-04-19T16:56:13.893Z,50.80
2023-04-19T16:58:21.971Z,48.95
2023-04-19T17:00:29.754Z,47.60
2023-04-19T17:02:40.119Z,47.03
2023-04-19T17:04:48.182Z,46.22
2023-04-19T17:06:56.833Z,49.17
2023-04-19T17:09:06.372Z,49.17
2023-04-19T17:11:14.319Z,51.15
2023-04-19T17:13:21.901Z,49.38
2023-04-19T17:15:29.925Z,49.88
2023-04-19T17:17:39.558Z,53.45
2023-04-19T17:19:47.687Z,47.20
2023-04-19T17:21:55.330Z,49.92
2023-04-19T17:24:03.201Z,50.22
2023-04-19T17:26:10.940Z,47.50
2023-04-19T17:28:19.001Z,47.92
2023-04-19T17:30:26.748Z,48.33
2023-04-19T17:32:34.879Z,47.00
2023-04-19T17:34:44.256Z,47.08
2023-04-19T17:36:52.217Z,50.13
2023-04-19T17:39:00.082Z,50.08
2023-04-19T17:41:09.687Z,47.75
2023-04-19T17:43:17.920Z,50.70
2023-04-19T17:45:26.273Z,47.00
2023-04-19T17:47:34.241Z,48.92
2023-04-19T17:49:44.714Z,49.40
2023-04-19T17:51:54.211Z,47.07
2023-04-19T17:54:01.912Z,47.45
2023-04-19T17:56:09.812Z,48.00
2023-04-19T17:58:17.912Z,47.78
2023-04-19T18:00:26.019Z,47.30
2023-04-19T18:02:34.422Z,49.00
2023-04-19T18:04:45.648Z,44.97
2023-04-19T18:06:53.791Z,48.20
2023-04-19T18:09:01.591Z,50.75
2023-04-19T18:11:09.763Z,47.72
2023-04-19T18:13:17.560Z,49.58
2023-04-19T18:15:25.485Z,48.00
2023-04-19T18:17:33.650Z,46.60
2023-04-19T18:19:43.511Z,43.92
2023-04-19T18:21:51.128Z,45.97
2023-04-19T18:23:59.110Z,45.38
2023-04-19T18:26:07.502Z,45.85
2023-04-19T18:28:15.354Z,44.20
2023-04-19T18:30:22.889Z,47.85
2023-04-19T18:32:31.413Z,43.17
2023-04-19T18:34:39.196Z,53.97
2023-04-19T18:36:48.973Z,46.80
2023-04-19T18:38:56.734Z,45.60
2023-04-19T18:41:04.754Z,46.70
2023-04-19T18:43:12.330Z,44.17
2023-04-19T18:45:20.479Z,44.75
2023-04-19T18:47:30.509Z,49.88
2023-04-19T18:49:38.515Z,46.53
2023-04-19T18:51:47.847Z,45.60
2023-04-19T18:53:55.802Z,48.45
2023-04-19T18:56:04.277Z,47.00
2023-04-19T18:58:13.197Z,43.45
2023-04-19T19:00:22.696Z,47.88
2023-04-19T19:02:30.756Z,45.22
2023-04-19T19:04:52.021Z,46.72
2023-04-19T19:07:18.241Z,47.83
2023-04-19T19:09:34.655Z,49.83
2023-04-19T19:11:55.356Z,45.05
2023-04-19T19:16:11.185Z,48.30
2023-04-19T19:18:19.191Z,46.03
2023-04-19T19:20:27.584Z,48.75
2023-04-19T19:22:37.124Z,44.55
2023-04-19T19:24:45.734Z,50.83
2023-04-19T19:26:53.360Z,46.53
2023-04-19T19:29:01.746Z,48.15
2023-04-19T19:31:09.600Z,48.38
2023-04-19T19:33:17.669Z,49.05
2023-04-19T19:35:25.360Z,47.70
2023-04-19T19:37:35.854Z,49.45
2023-04-19T19:39:43.627Z,50.22
2023-04-19T19:42:05.420Z,45.92
2023-04-19T19:44:14.125Z,47.40
2023-04-19T19:46:23.005Z,47.42
2023-04-19T19:48:30.749Z,51.75
2023-04-19T19:51:10.669Z,49.60
2023-04-19T19:53:08.913Z,50.90
2023-04-19T19:55:16.804Z,46.53
2023-04-19T19:59:35.538Z,49.77
2023-04-19T20:01:43.458Z,49.78
2023-04-19T20:03:51.913Z,50.63
2023-04-19T20:05:59.922Z,48.92
2023-04-19T20:08:14.907Z,44.03
2023-04-19T20:10:22.507Z,48.60
2023-04-19T20:12:30.379Z,47.47
2023-04-19T20:14:41.320Z,44.47
2023-04-19T20:16:49.250Z,51.10
2023-04-19T20:18:58.841Z,52.83
2023-04-19T20:21:06.685Z,47.83
2023-04-19T20:23:18.266Z,49.97
2023-04-19T20:25:26.082Z,46.60
2023-04-19T20:27:34.373Z,51.58
2023-04-19T20:29:42.008Z,56.58
2023-04-19T20:31:50.469Z,49.50
2023-04-19T20:33:58.533Z,51.95
2023-04-19T20:36:06.525Z,49.35
2023-04-19T20:38:15.902Z,53.55
2023-04-19T20:40:24.048Z,50.40
2023-04-19T20:42:31.070Z,51.78
2023-04-19T20:44:38.461Z,54.83
2023-04-19T20:46:45.742Z,51.42
2023-04-19T20:48:53.448Z,51.05
2023-04-19T20:51:00.582Z,52.80
2023-04-19T20:53:08.014Z,52.72
2023-04-19T20:55:17.387Z,53.40
2023-04-19T20:57:24.669Z,49.15
2023-04-19T20:59:31.607Z,51.72
2023-04-19T21:01:39.020Z,52.03
2023-04-19T21:03:46.347Z,52.53
2023-04-19T21:05:53.961Z,53.38
2023-04-19T21:08:00.949Z,53.05
2023-04-19T21:10:09.045Z,53.83
2023-04-19T21:12:17.979Z,55.53
2023-04-19T21:14:25.356Z,59.63
2023-04-19T21:16:32.736Z,54.47
2023-04-19T21:18:40.230Z,54.80
2023-04-19T21:20:47.290Z,58.20
2023-04-19T21:22:54.771Z,56.05
2023-04-19T21:25:01.773Z,56.17
2023-04-19T21:27:09.574Z,57.92
2023-04-19T21:29:18.548Z,59.47
2023-04-19T21:31:26.267Z,57.85
2023-04-19T21:33:33.429Z,60.97
2023-04-19T21:35:41.023Z,60.17
2023-04-19T21:37:47.938Z,54.55
2023-04-19T21:39:55.527Z,60.05
2023-04-19T21:42:02.610Z,56.58
2023-04-19T21:44:11.174Z,58.90
2023-04-19T21:46:19.817Z,53.33
2023-04-19T21:48:27.070Z,57.78
2023-04-19T21:50:34.216Z,56.17
2023-04-19T21:52:41.701Z,58.17
2023-04-19T21:54:49.598Z,54.72
2023-04-19T21:56:56.994Z,62.03
2023-04-19T21:59:03.965Z,57.95
2023-04-19T22:01:11.673Z,55.35
2023-04-19T22:03:20.487Z,56.47
2023-04-19T22:05:28.055Z,57.90
2023-04-19T22:07:35.135Z,59.70
2023-04-19T22:09:42.533Z,57.65
2023-04-19T22:11:51.392Z,53.03
2023-04-19T22:13:58.828Z,58.47
2023-04-19T22:16:06.065Z,61.25
2023-04-19T22:18:13.550Z,56.40
2023-04-19T22:20:22.378Z,57.83
2023-04-19T22:22:29.860Z,57.53
2023-04-19T22:24:43.855Z,55.55
2023-04-19T22:27:00.810Z,58.15
2023-04-19T22:29:07.906Z,56.78
2023-04-19T22:31:15.326Z,57.28
2023-04-19T22:33:23.018Z,61.15
2023-04-19T22:35:32.109Z,62.20
2023-04-19T22:37:39.226Z,54.63
2023-04-19T22:39:46.678Z,58.25
2023-04-19T22:41:54.070Z,59.25
2023-04-19T22:44:01.436Z,56.80
2023-04-19T22:46:08.880Z,55.40
2023-04-19T22:48:16.017Z,58.22
2023-04-19T22:50:24.522Z,56.85
2023-04-19T22:52:33.386Z,59.30
2023-04-19T22:54:40.774Z,59.33
2023-04-19T22:56:47.805Z,55.85
2023-04-19T22:58:55.137Z,60.47
2023-04-19T23:01:02.311Z,56.20
2023-04-19T23:03:10.286Z,55.78
2023-04-19T23:05:19.054Z,62.08
2023-04-19T23:07:27.095Z,57.40
2023-04-19T23:09:35.702Z,55.22
2023-04-19T23:11:43.448Z,59.22
2023-04-19T23:13:50.424Z,59.53
2023-04-19T23:15:57.668Z,56.75
2023-04-19T23:18:04.948Z,54.85
2023-04-19T23:20:13.821Z,54.85
2023-04-19T23:22:21.200Z,56.17
2023-04-19T23:24:28.130Z,61.40
2023-04-19T23:26:36.840Z,53.20
2023-04-19T23:28:43.845Z,52.72
2023-04-19T23:30:51.050Z,53.20
2023-04-19T23:32:58.651Z,52.65
2023-04-19T23:35:05.683Z,53.05
2023-04-19T23:37:13.418Z,50.35
2023-04-19T23:39:20.656Z,55.30
2023-04-19T23:41:27.907Z,59.45
2023-04-19T23:43:37.012Z,55.17
2023-04-19T23:45:44.298Z,55.13
2023-04-19T23:47:51.577Z,51.97
2023-04-19T23:49:58.614Z,58.67
2023-04-19T23:52:06.565Z,50.63
2023-04-19T23:54:13.841Z,56.25
2023-04-19T23:56:21.390Z,54.58
2023-04-19T23:58:28.460Z,52.22
